Time;durP1;ratioP1;P1;durP2;ratioP2;P2;SDS_P1;SDS_P2;PMS_P1;PMS_P2;Temp;Humidity;BMP_temperature;BMP_pressure;BME280_temperature;BME280_humidity;BME280_pressure;Samples;Min_cycle;Max_cycle;Signal;HPM_P1;HPM_P2
2021/07/18 00:04:06;;;;;;;25.23;22.53;;;18.50;99.90;;;;;;5076841;28;20474;-35
2021/07/18 00:06:32;;;;;;;26.00;23.30;;;18.50;99.90;;;;;;5077680;28;20434;-34
2021/07/18 00:08:58;;;;;;;25.00;22.60;;;18.50;99.90;;;;;;5077818;28;20702;-36
2021/07/18 00:11:24;;;;;;;25.67;22.97;;;18.50;99.90;;;;;;5077974;28;20431;-37
2021/07/18 00:14:02;;;;;;;26.17;21.70;;;18.40;99.90;;;;;;5077486;28;20220;-35
2021/07/18 00:16:28;;;;;;;24.13;21.63;;;18.40;99.90;;;;;;5060056;28;20438;-36
2021/07/18 00:18:53;;;;;;;25.77;22.93;;;18.40;99.90;;;;;;5077364;28;20412;-36
2021/07/18 00:21:56;;;;;;;23.43;21.33;;;18.40;99.90;;;;;;5076849;28;20173;-35
2021/07/18 00:24:22;;;;;;;22.60;20.30;;;18.30;99.90;;;;;;5077543;28;20172;-36
2021/07/18 00:26:47;;;;;;;24.10;21.17;;;18.30;99.90;;;;;;5077253;28;20506;-34
2021/07/18 00:29:13;;;;;;;21.67;19.43;;;18.30;99.90;;;;;;5077347;28;20189;-36
2021/07/18 00:31:39;;;;;;;20.53;18.60;;;18.20;99.90;;;;;;5076968;28;20185;-35
2021/07/18 00:34:04;;;;;;;20.40;18.50;;;18.20;99.90;;;;;;5077490;28;20266;-34
2021/07/18 00:39:15;;;;;;;17.80;16.00;;;18.10;99.90;;;;;;5077075;28;20228;-35
2021/07/18 00:41:42;;;;;;;19.00;17.20;;;18.10;99.90;;;;;;5060034;28;20451;-35
2021/07/18 00:44:08;;;;;;;18.20;16.50;;;18.10;99.90;;;;;;5077236;28;20769;-34
2021/07/18 00:46:34;;;;;;;18.20;16.47;;;18.10;99.90;;;;;;5076809;28;20530;-35
2021/07/18 00:49:03;;;;;;;16.87;15.23;;;18.10;99.90;;;;;;5077085;28;20419;-36
2021/07/18 00:51:29;;;;;;;16.10;14.50;;;18.10;99.90;;;;;;5077160;28;20431;-35
2021/07/18 00:53:55;;;;;;;17.73;15.87;;;18.10;99.90;;;;;;5076943;28;20892;-35
2021/07/18 00:56:21;;;;;;;17.97;15.27;;;18.00;99.90;;;;;;5042687;28;20235;-35
2021/07/18 00:58:51;;;;;;;16.67;14.93;;;18.00;99.90;;;;;;5076760;28;20594;-35
2021/07/18 01:01:16;;;;;;;19.40;14.03;;;17.90;99.90;;;;;;5059699;28;20819;-35
2021/07/18 01:03:42;;;;;;;15.80;14.10;;;17.90;99.90;;;;;;5059343;28;20483;-36
2021/07/18 01:06:07;;;;;;;15.87;14.30;;;17.90;99.90;;;;;;5076629;28;20271;-35
2021/07/18 01:08:33;;;;;;;16.13;14.10;;;17.90;99.90;;;;;;5077013;28;20323;-35
2021/07/18 01:10:59;;;;;;;14.17;12.70;;;17.80;99.90;;;;;;5077065;28;20196;-35
2021/07/18 01:13:25;;;;;;;14.90;13.00;;;17.80;99.90;;;;;;5076438;28;20792;-34
2021/07/18 01:15:50;;;;;;;13.10;11.80;;;17.80;99.90;;;;;;5076820;28;20453;-36
2021/07/18 01:18:16;;;;;;;14.60;12.30;;;17.80;99.90;;;;;;5076595;28;20197;-36
2021/07/18 01:20:42;;;;;;;12.53;11.40;;;17.80;99.90;;;;;;5059291;28;20433;-35
2021/07/18 01:23:09;;;;;;;12.63;10.80;;;17.80;99.90;;;;;;5058954;28;20443;-35
2021/07/18 01:25:35;;;;;;;13.50;12.20;;;17.80;99.90;;;;;;5076716;28;20534;-36
2021/07/18 01:28:06;;;;;;;10.73;9.83;;;17.70;99.90;;;;;;5059141;28;20506;-36
2021/07/18 01:30:32;;;;;;;12.50;11.40;;;17.70;99.90;;;;;;5076825;28;20445;-36
2021/07/18 01:33:03;;;;;;;10.93;9.73;;;17.70;99.90;;;;;;5076831;28;20423;-35
2021/07/18 01:35:30;;;;;;;10.40;9.40;;;17.60;99.90;;;;;;5076060;28;20488;-35
2021/07/18 01:38:07;;;;;;;11.70;9.40;;;17.60;99.90;;;;;;5076896;28;20458;-35
2021/07/18 01:40:33;;;;;;;11.70;10.10;;;17.50;99.90;;;;;;5076452;28;20437;-35
2021/07/18 01:46:21;;;;;;;10.80;9.43;;;17.40;99.90;;;;;;5076508;28;20258;-36
2021/07/18 01:48:51;;;;;;;10.90;9.30;;;17.30;99.90;;;;;;5058702;28;20407;-36
2021/07/18 01:51:22;;;;;;;9.40;8.60;;;17.30;99.90;;;;;;5076334;28;20428;-34
2021/07/18 01:53:51;;;;;;;12.10;9.17;;;17.30;99.90;;;;;;5076239;28;20873;-34
2021/07/18 01:56:16;;;;;;;9.23;8.33;;;17.20;99.90;;;;;;5076540;28;20710;-35
2021/07/18 01:58:42;;;;;;;9.90;9.00;;;17.20;99.90;;;;;;5076630;28;20416;-35
2021/07/18 02:01:08;;;;;;;10.77;8.93;;;17.20;99.90;;;;;;5076703;28;20431;-35
2021/07/18 02:03:34;;;;;;;10.60;9.50;;;17.20;99.90;;;;;;5076700;28;20622;-35
2021/07/18 02:05:59;;;;;;;9.80;8.80;;;17.20;99.90;;;;;;5076466;28;20196;-35
2021/07/18 02:08:25;;;;;;;10.77;9.63;;;17.20;99.90;;;;;;5076713;28;20502;-35
2021/07/18 02:10:50;;;;;;;10.80;9.83;;;17.20;99.90;;;;;;5076396;28;20189;-34
2021/07/18 02:13:19;;;;;;;9.27;8.30;;;17.20;99.90;;;;;;5076054;28;20207;-35
2021/07/18 02:16:04;;;;;;;10.53;9.43;;;17.20;99.90;;;;;;5076598;28;20181;-35
2021/07/18 02:19:05;;;;;;;15.00;8.70;;;17.20;99.90;;;;;;5076329;28;20435;-35
2021/07/18 02:21:30;;;;;;;11.73;8.60;;;17.20;99.90;;;;;;5076776;28;20438;-36
2021/07/18 02:23:56;;;;;;;11.07;9.20;;;17.20;99.90;;;;;;5058578;28;20419;-35
2021/07/18 02:26:27;;;;;;;10.97;9.70;;;17.20;99.90;;;;;;5076120;28;20200;-34
2021/07/18 02:28:53;;;;;;;11.70;9.40;;;17.20;99.90;;;;;;5079872;28;20200;-35
2021/07/18 02:31:20;;;;;;;10.40;8.47;;;17.10;99.90;;;;;;5079743;28;20584;-35
2021/07/18 02:33:45;;;;;;;9.40;8.37;;;17.10;99.90;;;;;;5079354;28;20576;-34
2021/07/18 02:36:11;;;;;;;9.43;7.73;;;17.10;99.90;;;;;;5079141;28;20782;-35
2021/07/18 02:38:37;;;;;;;10.07;8.83;;;17.00;99.90;;;;;;5079715;28;20255;-34
2021/07/18 02:41:03;;;;;;;10.70;8.20;;;17.00;99.90;;;;;;5079596;28;20192;-35
2021/07/18 02:43:28;;;;;;;9.67;8.77;;;16.90;99.90;;;;;;5079325;28;20461;-34
2021/07/18 02:45:54;;;;;;;8.30;7.40;;;16.90;99.90;;;;;;5061929;28;20189;-35
2021/07/18 02:48:41;;;;;;;9.07;8.33;;;16.90;99.90;;;;;;5079140;28;20467;-35
2021/07/18 02:51:06;;;;;;;8.33;7.53;;;17.00;99.90;;;;;;5062349;28;20497;-35
2021/07/18 02:53:32;;;;;;;11.93;8.30;;;17.00;99.90;;;;;;5079273;28;20854;-36
2021/07/18 02:55:58;;;;;;;9.70;8.70;;;17.00;99.90;;;;;;5079396;28;20276;-34
2021/07/18 02:58:23;;;;;;;9.47;7.90;;;16.90;99.90;;;;;;5079608;28;20525;-34
2021/07/18 03:00:51;;;;;;;9.27;8.00;;;17.00;99.90;;;;;;5079261;28;20446;-35
2021/07/18 03:03:17;;;;;;;9.67;8.60;;;17.00;99.90;;;;;;5079455;28;20188;-35
2021/07/18 03:06:02;;;;;;;9.00;8.10;;;17.00;99.90;;;;;;5082241;28;20541;-34
2021/07/18 03:08:27;;;;;;;10.40;9.20;;;17.00;99.90;;;;;;5087527;28;20450;-36
2021/07/18 03:10:53;;;;;;;9.80;8.80;;;17.00;99.90;;;;;;5081370;28;20722;-36
2021/07/18 03:13:19;;;;;;;9.73;8.37;;;16.90;99.90;;;;;;5078572;28;20295;-35
2021/07/18 03:15:45;;;;;;;9.60;8.27;;;16.90;99.90;;;;;;5082690;28;20235;-34
2021/07/18 03:18:10;;;;;;;10.20;9.20;;;16.90;99.90;;;;;;5085729;28;20222;-36
2021/07/18 03:21:04;;;;;;;10.10;9.20;;;16.90;99.90;;;;;;5079337;28;20431;-35
2021/07/18 03:23:30;;;;;;;13.03;10.67;;;16.80;99.90;;;;;;5079219;28;20310;-35
2021/07/18 03:25:55;;;;;;;10.97;9.87;;;16.80;99.90;;;;;;5078639;28;20789;-35
2021/07/18 03:28:22;;;;;;;12.03;8.60;;;16.70;99.90;;;;;;5078562;28;20435;-36
2021/07/18 03:30:49;;;;;;;9.70;8.80;;;16.70;99.90;;;;;;5078718;28;20181;-34
2021/07/18 03:33:14;;;;;;;9.60;8.80;;;16.70;99.90;;;;;;5078567;28;20568;-35
2021/07/18 03:35:40;;;;;;;11.07;8.50;;;16.70;99.90;;;;;;5078410;28;20443;-36
2021/07/18 03:38:06;;;;;;;9.80;8.90;;;16.70;99.90;;;;;;5077488;28;20419;-34
2021/07/18 03:40:31;;;;;;;11.27;10.27;;;16.60;99.90;;;;;;5077560;28;20181;-34
2021/07/18 03:42:57;;;;;;;13.00;10.33;;;16.60;99.90;;;;;;5077620;28;20209;-35
2021/07/18 03:45:23;;;;;;;12.47;11.27;;;16.60;99.90;;;;;;5078047;28;20195;-36
2021/07/18 03:47:49;;;;;;;12.00;10.80;;;16.60;99.90;;;;;;5078487;28;20797;-35
2021/07/18 03:50:15;;;;;;;12.00;10.80;;;16.60;99.90;;;;;;5060267;28;20478;-34
2021/07/18 03:52:41;;;;;;;10.90;10.00;;;16.60;99.90;;;;;;5078582;28;20443;-35
2021/07/18 03:55:07;;;;;;;12.17;10.97;;;16.60;99.90;;;;;;5078199;28;20592;-34
2021/07/18 03:57:33;;;;;;;11.07;10.07;;;16.70;99.90;;;;;;5078453;28;20518;-34
2021/07/18 03:59:59;;;;;;;10.60;9.60;;;16.70;99.90;;;;;;5077883;28;20453;-35
2021/07/18 04:02:25;;;;;;;12.23;10.93;;;16.70;99.90;;;;;;5078126;28;20764;-34
2021/07/18 04:04:51;;;;;;;10.73;9.73;;;16.70;99.90;;;;;;5077971;28;20180;-35
2021/07/18 04:07:16;;;;;;;10.43;9.33;;;16.80;99.90;;;;;;5078543;28;20415;-35
2021/07/18 04:09:42;;;;;;;13.33;10.20;;;16.80;99.90;;;;;;5077609;28;20185;-35
2021/07/18 04:12:08;;;;;;;11.33;10.23;;;16.80;99.90;;;;;;5077356;28;20208;-36
2021/07/18 04:14:34;;;;;;;10.53;9.20;;;16.80;99.90;;;;;;5078133;28;20229;-35
2021/07/18 04:17:00;;;;;;;10.40;9.33;;;16.80;99.90;;;;;;5078170;28;20842;-35
2021/07/18 04:19:44;;;;;;;12.40;10.53;;;16.80;99.90;;;;;;5077938;28;20165;-35
2021/07/18 04:25:13;;;;;;;10.33;9.33;;;16.80;99.90;;;;;;5077362;28;20430;-36
2021/07/18 04:27:39;;;;;;;10.03;8.60;;;16.90;99.90;;;;;;5077613;28;20412;-35
2021/07/18 04:30:05;;;;;;;9.90;8.90;;;16.90;99.90;;;;;;5077775;28;20448;-34
2021/07/18 04:32:31;;;;;;;10.07;9.13;;;17.00;99.90;;;;;;5077723;28;20794;-36
2021/07/18 04:34:57;;;;;;;11.57;9.13;;;17.00;99.90;;;;;;5077459;28;20536;-35
2021/07/18 04:40:26;;;;;;;9.63;8.63;;;17.10;99.90;;;;;;5077456;28;20191;-37
2021/07/18 04:42:52;;;;;;;9.67;8.77;;;17.20;99.90;;;;;;5077541;28;20454;-38
2021/07/18 04:45:18;;;;;;;9.47;8.57;;;17.30;99.90;;;;;;5077765;28;20411;-36
2021/07/18 04:47:51;;;;;;;9.67;8.77;;;17.30;99.90;;;;;;5077835;28;20434;-36
2021/07/18 04:50:17;;;;;;;10.70;9.60;;;17.40;99.90;;;;;;5076748;28;20414;-38
2021/07/18 04:52:44;;;;;;;10.03;9.03;;;17.40;99.90;;;;;;5076930;28;20508;-37
2021/07/18 04:55:37;;;;;;;16.70;8.90;;;17.50;99.90;;;;;;5076751;28;20478;-36
2021/07/18 04:58:03;;;;;;;9.30;8.30;;;17.60;99.90;;;;;;5076349;28;20489;-37
2021/07/18 05:00:29;;;;;;;9.73;8.53;;;17.60;99.90;;;;;;5076312;28;21018;-37
2021/07/18 05:02:54;;;;;;;8.53;7.63;;;17.70;99.90;;;;;;5076715;28;20174;-36
2021/07/18 05:05:20;;;;;;;9.07;8.10;;;17.80;99.90;;;;;;5077028;28;20192;-38
2021/07/18 05:07:48;;;;;;;11.00;8.50;;;17.90;99.90;;;;;;5077201;28;20544;-36
2021/07/18 05:10:14;;;;;;;9.80;8.63;;;17.90;99.90;;;;;;5076784;28;20861;-36
2021/07/18 05:12:58;;;;;;;13.30;9.27;;;18.00;99.90;;;;;;5076840;28;20423;-35
2021/07/18 05:15:25;;;;;;;9.00;8.07;;;18.00;99.90;;;;;;5077169;28;20536;-34
2021/07/18 05:17:52;;;;;;;9.50;8.50;;;18.10;99.90;;;;;;5059039;28;20849;-34
2021/07/18 05:20:21;;;;;;;9.43;7.93;;;18.20;99.90;;;;;;5075490;28;20834;-34
2021/07/18 05:23:01;;;;;;;9.23;8.30;;;18.20;99.90;;;;;;5075802;28;20415;-35
2021/07/18 05:25:27;;;;;;;8.30;7.50;;;18.30;99.90;;;;;;5075996;28;20496;-34
2021/07/18 05:27:52;;;;;;;8.57;7.73;;;18.30;99.90;;;;;;5075921;28;20810;-34
2021/07/18 05:30:18;;;;;;;8.67;7.20;;;18.40;99.90;;;;;;5076194;28;20197;-36
2021/07/18 05:32:44;;;;;;;7.93;7.23;;;18.50;99.90;;;;;;5076772;28;20173;-35
2021/07/18 05:35:11;;;;;;;8.87;8.07;;;18.50;99.90;;;;;;5077006;28;20213;-35
2021/07/18 05:37:37;;;;;;;7.13;6.43;;;18.50;99.90;;;;;;5077162;28;20170;-36
2021/07/18 05:40:04;;;;;;;9.67;6.53;;;18.60;99.90;;;;;;5076922;28;21059;-36
2021/07/18 05:42:30;;;;;;;9.30;6.90;;;18.60;99.90;;;;;;5076387;28;20426;-37
2021/07/18 05:45:04;;;;;;;7.57;6.87;;;18.60;99.90;;;;;;5076892;28;20434;-37
2021/07/18 05:47:33;;;;;;;6.70;6.10;;;18.70;99.90;;;;;;5075549;28;20233;-36
2021/07/18 05:50:04;;;;;;;6.90;6.20;;;18.80;99.60;;;;;;5075931;28;20427;-33
2021/07/18 05:52:30;;;;;;;7.10;6.30;;;18.80;99.40;;;;;;5077622;28;20518;-37
2021/07/18 05:54:56;;;;;;;7.13;5.83;;;18.90;99.00;;;;;;5080516;28;20728;-35
2021/07/18 05:57:22;;;;;;;7.10;5.60;;;18.90;99.10;;;;;;5078234;28;20435;-37
2021/07/18 05:59:48;;;;;;;6.23;5.30;;;19.00;98.80;;;;;;5075892;28;20431;-33
2021/07/18 06:02:15;;;;;;;4.73;4.27;;;19.10;98.20;;;;;;5079705;28;20468;-36
2021/07/18 06:04:44;;;;;;;4.47;3.93;;;19.20;98.20;;;;;;5082881;28;20492;-36
2021/07/18 06:07:10;;;;;;;5.47;4.50;;;19.20;96.80;;;;;;5080931;28;20426;-37
2021/07/18 06:09:36;;;;;;;5.80;4.10;;;19.20;97.20;;;;;;5079803;28;20446;-35
2021/07/18 06:12:03;;;;;;;7.20;4.40;;;19.30;97.60;;;;;;5080479;28;20435;-36
2021/07/18 06:14:28;;;;;;;6.17;5.03;;;19.40;97.50;;;;;;5079347;28;20475;-36
2021/07/18 06:16:54;;;;;;;4.33;3.93;;;19.50;97.10;;;;;;5080270;28;20416;-36
2021/07/18 06:19:19;;;;;;;4.10;3.70;;;19.60;96.40;;;;;;5079407;28;20173;-35
2021/07/18 06:21:45;;;;;;;4.17;3.50;;;19.70;96.50;;;;;;5079734;28;20195;-36
2021/07/18 06:24:11;;;;;;;4.80;4.30;;;19.80;95.80;;;;;;5080309;28;20185;-37
2021/07/18 06:26:37;;;;;;;3.40;3.10;;;19.90;96.20;;;;;;5079649;28;20471;-35
2021/07/18 06:29:02;;;;;;;3.10;2.80;;;20.10;96.10;;;;;;5079998;28;20188;-36
2021/07/18 06:32:02;;;;;;;6.60;3.23;;;20.20;95.70;;;;;;5079472;28;20271;-35
2021/07/18 06:34:28;;;;;;;3.53;3.23;;;20.30;95.30;;;;;;5079776;28;20795;-36
2021/07/18 06:36:54;;;;;;;4.00;3.60;;;20.50;95.00;;;;;;5079524;28;20514;-35
2021/07/18 06:39:20;;;;;;;4.07;3.63;;;20.60;94.80;;;;;;5079411;28;20165;-36
2021/07/18 06:41:46;;;;;;;3.60;3.23;;;20.60;94.30;;;;;;5079760;28;20177;-37
2021/07/18 06:44:12;;;;;;;3.50;3.20;;;20.70;94.20;;;;;;5079192;28;20422;-36
2021/07/18 06:46:38;;;;;;;6.27;3.27;;;20.70;93.80;;;;;;5080019;28;20850;-36
2021/07/18 06:49:04;;;;;;;4.70;3.33;;;20.80;94.30;;;;;;5079498;28;20598;-36
2021/07/18 06:51:30;;;;;;;8.83;3.07;;;21.00;94.30;;;;;;5078638;28;20419;-37
2021/07/18 06:53:55;;;;;;;6.77;3.07;;;21.20;93.40;;;;;;5079045;28;20212;-36
2021/07/18 06:56:21;;;;;;;6.43;3.23;;;21.20;93.00;;;;;;5079430;28;20415;-35
2021/07/18 06:58:47;;;;;;;4.43;3.30;;;21.20;93.30;;;;;;5078814;28;20177;-36
2021/07/18 07:01:13;;;;;;;3.93;2.80;;;21.30;92.90;;;;;;5078928;28;20213;-36
2021/07/18 07:03:38;;;;;;;8.43;2.90;;;21.40;92.60;;;;;;5078665;28;20181;-36
2021/07/18 07:06:04;;;;;;;4.27;3.57;;;21.50;92.30;;;;;;5078125;28;20435;-34
2021/07/18 07:08:30;;;;;;;3.40;3.10;;;21.70;93.00;;;;;;5078250;28;20177;-34
2021/07/18 07:10:56;;;;;;;8.23;3.20;;;21.90;93.00;;;;;;5078453;28;20199;-33
2021/07/18 07:16:43;;;;;;;4.63;3.80;;;22.20;91.70;;;;;;5084285;28;20530;-42
2021/07/18 07:19:10;;;;;;;2.80;2.60;;;22.40;91.80;;;;;;5098298;28;20797;-43
2021/07/18 07:21:36;;;;;;;3.40;3.10;;;22.60;91.90;;;;;;5098699;28;20671;-42
2021/07/18 07:24:02;;;;;;;7.90;4.30;;;22.80;91.40;;;;;;5098511;28;20440;-44
2021/07/18 07:26:27;;;;;;;3.27;2.80;;;22.90;91.10;;;;;;5098706;28;20475;-41
2021/07/18 07:28:53;;;;;;;5.23;2.67;;;23.10;90.80;;;;;;5079948;28;20607;-41
2021/07/18 07:31:19;;;;;;;3.53;3.17;;;23.20;90.90;;;;;;5097015;28;20441;-41
2021/07/18 07:33:44;;;;;;;3.70;3.30;;;23.40;90.90;;;;;;5096810;28;20211;-42
2021/07/18 07:36:10;;;;;;;4.23;3.03;;;23.60;90.50;;;;;;5097629;28;20176;-42
2021/07/18 07:38:36;;;;;;;5.27;3.17;;;23.70;90.10;;;;;;5097116;28;20431;-41
2021/07/18 07:41:02;;;;;;;4.00;2.93;;;23.90;90.10;;;;;;5096429;28;20423;-41
2021/07/18 07:43:28;;;;;;;5.47;2.97;;;23.90;89.00;;;;;;5097533;28;20257;-41
2021/07/18 07:45:54;;;;;;;3.90;3.30;;;24.10;89.60;;;;;;5098216;28;20573;-43
2021/07/18 07:48:29;;;;;;;4.07;2.80;;;24.20;89.30;;;;;;5097969;28;20407;-42
2021/07/18 07:50:57;;;;;;;5.67;3.53;;;24.30;87.80;;;;;;5098027;28;20454;-40
2021/07/18 07:53:23;;;;;;;4.40;2.77;;;24.50;87.10;;;;;;5097744;28;20607;-41
2021/07/18 07:55:49;;;;;;;5.50;3.50;;;24.50;86.70;;;;;;5097487;28;20836;-41
2021/07/18 07:58:15;;;;;;;4.67;3.10;;;24.60;87.20;;;;;;5097794;28;20508;-43
2021/07/18 08:00:41;;;;;;;4.07;3.67;;;24.70;87.70;;;;;;5098009;28;20428;-42
2021/07/18 08:03:07;;;;;;;4.47;3.40;;;24.80;86.00;;;;;;5097795;28;20188;-41
2021/07/18 08:05:33;;;;;;;3.90;3.53;;;24.90;85.60;;;;;;5096445;28;20746;-42
2021/07/18 08:07:58;;;;;;;3.40;3.10;;;25.00;86.00;;;;;;5096095;28;20184;-42
2021/07/18 08:10:24;;;;;;;3.77;3.30;;;25.10;86.20;;;;;;5093884;28;20521;-44
2021/07/18 08:12:50;;;;;;;3.57;3.27;;;25.40;85.10;;;;;;5095169;28;20175;-42
2021/07/18 08:15:18;;;;;;;4.33;3.30;;;25.60;86.00;;;;;;5094438;28;20482;-43
2021/07/18 08:17:44;;;;;;;8.90;3.50;;;25.70;84.20;;;;;;5094633;28;20437;-41
2021/07/18 08:20:13;;;;;;;3.93;3.53;;;25.70;83.40;;;;;;5094589;28;20418;-40
2021/07/18 08:22:39;;;;;;;6.60;3.70;;;25.70;84.30;;;;;;5093430;28;20415;-42
2021/07/18 08:25:07;;;;;;;4.70;3.70;;;25.70;83.50;;;;;;5092134;28;20444;-42
2021/07/18 08:27:33;;;;;;;7.70;3.50;;;25.60;85.60;;;;;;5094523;28;20410;-41
2021/07/18 08:29:59;;;;;;;5.30;3.47;;;25.70;86.00;;;;;;5094160;28;20434;-42
2021/07/18 08:32:24;;;;;;;4.57;3.50;;;25.80;83.50;;;;;;5093740;28;20407;-41
2021/07/18 08:34:50;;;;;;;5.00;3.67;;;25.90;83.60;;;;;;5093914;28;20223;-41
2021/07/18 08:37:15;;;;;;;6.90;4.00;;;26.10;85.30;;;;;;5096008;28;20455;-41
2021/07/18 08:39:41;;;;;;;3.80;3.50;;;26.20;83.40;;;;;;5096755;28;20286;-40
2021/07/18 08:42:07;;;;;;;4.23;3.50;;;26.30;84.10;;;;;;5096361;28;20536;-41
2021/07/18 08:44:34;;;;;;;7.17;3.73;;;26.50;81.40;;;;;;5096596;28;20176;-41
2021/07/18 08:47:00;;;;;;;4.20;3.13;;;26.60;82.20;;;;;;5096657;28;20466;-44
2021/07/18 08:49:26;;;;;;;4.60;3.40;;;26.80;82.10;;;;;;5096957;28;20436;-43
2021/07/18 08:51:52;;;;;;;5.63;3.87;;;26.90;83.90;;;;;;5096498;28;20497;-41
2021/07/18 08:54:18;;;;;;;3.70;3.30;;;27.00;80.20;;;;;;5078693;28;20204;-42
2021/07/18 08:56:46;;;;;;;4.27;3.80;;;27.10;80.30;;;;;;5078855;28;20429;-41
2021/07/18 08:59:12;;;;;;;5.50;3.70;;;27.20;81.00;;;;;;5097009;28;20540;-42
2021/07/18 09:01:41;;;;;;;5.03;3.40;;;27.40;79.60;;;;;;5094359;28;20425;-42
2021/07/18 09:04:06;;;;;;;4.80;3.93;;;27.60;77.80;;;;;;5094527;28;20865;-41
2021/07/18 09:06:40;;;;;;;3.70;3.30;;;27.60;77.50;;;;;;5094583;28;20525;-39
2021/07/18 09:09:08;;;;;;;5.00;3.67;;;27.70;78.40;;;;;;5094916;28;20180;-42
2021/07/18 09:11:34;;;;;;;5.27;3.47;;;27.90;79.60;;;;;;5094911;28;20430;-41
2021/07/18 09:14:03;;;;;;;6.97;3.80;;;28.10;76.00;;;;;;5095145;28;20501;-42
2021/07/18 09:16:35;;;;;;;5.20;3.70;;;28.20;76.90;;;;;;5095149;28;20413;-42
2021/07/18 09:19:19;;;;;;;3.57;3.27;;;28.30;76.10;;;;;;5095344;28;20398;-42
2021/07/18 09:22:03;;;;;;;5.93;3.70;;;28.50;75.30;;;;;;5095184;28;20532;-41
2021/07/18 09:24:36;;;;;;;4.27;3.57;;;28.60;73.70;;;;;;5095472;28;20409;-41
2021/07/18 09:27:25;;;;;;;4.40;3.50;;;28.70;75.40;;;;;;5095277;28;20774;-42
2021/07/18 09:29:55;;;;;;;3.37;3.00;;;28.80;75.90;;;;;;5078206;28;20442;-43
2021/07/18 09:32:26;;;;;;;5.70;3.47;;;29.00;75.40;;;;;;5096292;28;20784;-40
2021/07/18 09:34:59;;;;;;;3.40;3.03;;;29.20;73.10;;;;;;5095117;28;20457;-42
2021/07/18 09:37:26;;;;;;;6.53;3.67;;;29.40;72.50;;;;;;5099527;28;20417;-42
2021/07/18 09:40:03;;;;;;;4.77;3.60;;;29.50;72.50;;;;;;5099881;28;20493;-41
2021/07/18 09:42:47;;;;;;;5.30;3.40;;;29.50;70.00;;;;;;5100167;28;20704;-42
2021/07/18 09:45:13;;;;;;;4.80;3.20;;;29.60;70.40;;;;;;5100463;28;20462;-44
2021/07/18 09:47:55;;;;;;;3.73;3.17;;;29.60;68.50;;;;;;5099895;28;20586;-40
2021/07/18 09:50:37;;;;;;;4.87;3.50;;;29.70;70.80;;;;;;5100223;28;20461;-42
2021/07/18 09:53:08;;;;;;;3.43;3.13;;;29.80;68.40;;;;;;5099873;28;20709;-41
2021/07/18 09:55:33;;;;;;;6.43;3.30;;;29.90;69.80;;;;;;5099499;28;20679;-42
2021/07/18 09:57:59;;;;;;;3.10;2.80;;;30.10;70.70;;;;;;5099362;28;20388;-40
2021/07/18 10:00:41;;;;;;;6.00;3.20;;;30.30;69.00;;;;;;5080558;28;20713;-41
2021/07/18 10:03:14;;;;;;;4.30;2.87;;;30.50;68.80;;;;;;5097659;28;20385;-42
2021/07/18 10:05:40;;;;;;;6.70;3.67;;;30.80;66.00;;;;;;5099132;28;20401;-43
2021/07/18 10:08:08;;;;;;;5.60;3.40;;;30.70;65.20;;;;;;5080473;28;20393;-44
2021/07/18 10:10:36;;;;;;;4.27;3.50;;;30.60;65.90;;;;;;5097517;28;20412;-43
2021/07/18 10:13:05;;;;;;;3.40;2.93;;;30.60;66.60;;;;;;5096912;28;20413;-43
2021/07/18 10:15:33;;;;;;;4.17;3.27;;;30.50;66.30;;;;;;5098778;28;20628;-42
2021/07/18 10:17:59;;;;;;;3.40;2.93;;;30.60;64.80;;;;;;5098459;28;20795;-42
2021/07/18 10:20:26;;;;;;;4.60;3.73;;;30.70;65.90;;;;;;5098387;28;20405;-44
2021/07/18 10:22:58;;;;;;;5.30;3.30;;;30.70;63.40;;;;;;5080724;28;20404;-44
2021/07/18 10:25:25;;;;;;;4.33;3.23;;;30.60;62.90;;;;;;5098851;28;20433;-36
2021/07/18 10:27:51;;;;;;;3.33;3.00;;;30.70;64.40;;;;;;5097416;28;20397;-37
2021/07/18 10:30:19;;;;;;;3.93;2.90;;;30.80;63.90;;;;;;5078824;28;20409;-37
2021/07/18 10:32:46;;;;;;;8.07;4.00;;;30.60;63.00;;;;;;5097595;28;20418;-37
2021/07/18 10:35:12;;;;;;;3.50;3.20;;;30.60;62.00;;;;;;5079694;28;20474;-38
2021/07/18 10:37:42;;;;;;;4.93;3.40;;;30.60;61.00;;;;;;5078284;28;20373;-37
2021/07/18 10:40:12;;;;;;;6.20;3.87;;;30.60;62.30;;;;;;5096475;28;20498;-38
2021/07/18 10:42:40;;;;;;;3.90;3.40;;;30.70;61.10;;;;;;5097333;28;20422;-37
2021/07/18 10:45:35;;;;;;;4.53;3.47;;;30.60;61.80;;;;;;5097106;28;20462;-36
2021/07/18 10:48:09;;;;;;;3.77;3.13;;;30.90;63.40;;;;;;5096680;28;20433;-36
2021/07/18 10:50:44;;;;;;;6.93;3.70;;;31.40;62.90;;;;;;5095468;28;20995;-36
2021/07/18 10:53:24;;;;;;;5.37;3.30;;;31.70;61.80;;;;;;5079608;28;20510;-37
2021/07/18 10:55:51;;;;;;;3.50;3.20;;;31.90;59.10;;;;;;5081716;28;20660;-36
2021/07/18 10:58:39;;;;;;;4.83;3.13;;;32.00;59.40;;;;;;5082545;28;20734;-37
2021/07/18 11:01:10;;;;;;;6.37;3.73;;;32.00;59.50;;;;;;5099847;28;20400;-37
2021/07/18 11:03:43;;;;;;;4.27;3.57;;;32.00;58.00;;;;;;5099480;28;20378;-36
2021/07/18 11:06:20;;;;;;;7.80;3.43;;;32.20;57.40;;;;;;5098552;28;20440;-36
2021/07/18 11:09:19;;;;;;;3.47;3.17;;;32.00;57.90;;;;;;5098697;28;20416;-38
2021/07/18 11:11:48;;;;;;;3.83;3.33;;;32.10;58.40;;;;;;5080562;28;20442;-38
2021/07/18 11:14:20;;;;;;;4.20;3.80;;;31.90;58.90;;;;;;5098330;28;20466;-40
2021/07/18 11:16:51;;;;;;;5.67;3.80;;;32.10;58.50;;;;;;5097209;28;20414;-36
2021/07/18 11:19:38;;;;;;;4.63;3.60;;;32.30;56.10;;;;;;5097518;28;20410;-36
2021/07/18 11:22:11;;;;;;;5.97;3.57;;;32.30;55.30;;;;;;5077163;28;20397;-36
2021/07/18 11:24:54;;;;;;;4.83;3.70;;;32.60;55.30;;;;;;5077527;28;20414;-36
2021/07/18 11:27:26;;;;;;;5.60;3.60;;;32.20;54.70;;;;;;5095146;28;20770;-40
2021/07/18 11:29:53;;;;;;;5.40;3.60;;;32.20;56.20;;;;;;5095711;28;20430;-38
2021/07/18 11:32:29;;;;;;;4.40;3.30;;;32.20;54.10;;;;;;5096177;28;20377;-36
2021/07/18 11:34:56;;;;;;;4.73;3.23;;;32.30;54.70;;;;;;5095465;28;20850;-36
2021/07/18 11:37:23;;;;;;;3.50;2.80;;;32.70;55.20;;;;;;5080662;28;20398;-37
2021/07/18 11:39:48;;;;;;;3.97;3.57;;;32.80;53.40;;;;;;5098874;28;20405;-37
2021/07/18 11:42:16;;;;;;;5.07;3.10;;;33.00;53.50;;;;;;5098319;28;20687;-37
2021/07/18 11:44:44;;;;;;;4.10;3.80;;;33.20;52.70;;;;;;5098386;28;20188;-36
2021/07/18 11:47:14;;;;;;;4.50;3.37;;;33.30;53.80;;;;;;5097668;28;20438;-39
2021/07/18 11:49:43;;;;;;;6.20;3.87;;;33.00;52.70;;;;;;5097881;28;20525;-37
2021/07/18 11:52:12;;;;;;;4.30;3.23;;;32.90;52.80;;;;;;5097535;28;20454;-37
2021/07/18 11:54:38;;;;;;;4.97;4.10;;;33.00;52.10;;;;;;5098134;28;20458;-37
2021/07/18 11:57:11;;;;;;;5.67;3.80;;;33.20;51.30;;;;;;5080287;28;20424;-40
2021/07/18 11:59:38;;;;;;;4.30;3.30;;;33.10;52.90;;;;;;5097031;28;20704;-37
2021/07/18 12:02:04;;;;;;;3.97;3.57;;;33.10;52.10;;;;;;5078027;28;20415;-37
2021/07/18 12:04:31;;;;;;;4.00;3.53;;;33.00;51.90;;;;;;5079309;28;20475;-44
2021/07/18 12:07:05;;;;;;;4.93;3.37;;;33.20;53.30;;;;;;5079871;28;20415;-37
2021/07/18 12:09:39;;;;;;;5.23;4.20;;;33.50;52.30;;;;;;5097498;28;20446;-38
2021/07/18 12:12:10;;;;;;;4.70;3.70;;;33.80;50.00;;;;;;5095580;28;20601;-38
2021/07/18 12:14:36;;;;;;;4.83;4.10;;;34.00;50.30;;;;;;5095083;28;20732;-38
2021/07/18 12:17:03;;;;;;;6.03;4.20;;;34.20;51.10;;;;;;5061617;28;20435;-38
2021/07/18 12:19:30;;;;;;;6.23;4.63;;;34.40;49.80;;;;;;5095564;28;20414;-37
2021/07/18 12:21:58;;;;;;;6.23;4.57;;;34.60;48.90;;;;;;5060671;28;20423;-38
2021/07/18 12:24:33;;;;;;;5.67;4.40;;;34.60;48.80;;;;;;5059502;28;20771;-37
2021/07/18 12:26:59;;;;;;;4.60;4.07;;;34.70;48.60;;;;;;5078061;28;20442;-38
2021/07/18 12:29:29;;;;;;;5.63;5.10;;;34.60;49.80;;;;;;5077932;28;20414;-37
2021/07/18 12:31:56;;;;;;;6.00;5.50;;;34.70;48.10;;;;;;5078490;28;20809;-37
2021/07/18 12:34:30;;;;;;;7.37;6.63;;;35.00;49.20;;;;;;5077551;28;20448;-36
2021/07/18 12:37:06;;;;;;;8.00;6.23;;;35.30;47.20;;;;;;5096535;28;20485;-38
2021/07/18 12:39:42;;;;;;;7.50;6.80;;;34.80;48.80;;;;;;5079521;28;20486;-37
2021/07/18 12:42:12;;;;;;;7.80;7.10;;;35.20;48.40;;;;;;5079702;28;20716;-37
2021/07/18 12:44:54;;;;;;;8.03;7.23;;;35.60;47.10;;;;;;5097579;28;20471;-37
2021/07/18 12:47:20;;;;;;;9.30;8.23;;;35.80;48.40;;;;;;5078382;28;20712;-38
2021/07/18 12:50:04;;;;;;;9.43;8.63;;;35.70;47.60;;;;;;5094968;28;20438;-37
2021/07/18 12:52:29;;;;;;;10.30;9.30;;;35.40;47.30;;;;;;5094375;28;20222;-37
2021/07/18 12:54:55;;;;;;;10.67;9.57;;;35.50;47.30;;;;;;5095019;28;20516;-37
2021/07/18 12:57:30;;;;;;;8.83;8.13;;;35.50;46.50;;;;;;5092809;28;20559;-37
2021/07/18 13:00:04;;;;;;;13.67;12.33;;;35.50;47.00;;;;;;5094552;28;20519;-37
2021/07/18 13:02:30;;;;;;;14.73;13.43;;;35.60;46.50;;;;;;5075838;28;20422;-37
2021/07/18 13:05:07;;;;;;;15.80;14.47;;;35.60;44.50;;;;;;5094407;28;20875;-38
2021/07/18 13:07:34;;;;;;;17.37;15.50;;;35.60;46.00;;;;;;5095348;28;20207;-37
2021/07/18 13:10:17;;;;;;;14.80;13.40;;;35.50;45.00;;;;;;5095884;28;20467;-37